sensor_id;sensor_type;location;lat;lon;timestamp;P1;durP1;ratioP1;P2;durP2;ratioP2
18695;SDS011;22617;43.690;27.956;2023-09-12T00:02:32;6.50;;;3.67;;
18695;SDS011;22617;43.690;27.956;2023-09-12T00:07:38;4.77;;;3.60;;
18695;SDS011;22617;43.690;27.956;2023-09-12T00:12:44;4.73;;;3.30;;
18695;SDS011;22617;43.690;27.956;2023-09-12T00:17:47;6.27;;;3.87;;
18695;SDS011;22617;43.690;27.956;2023-09-12T00:22:51;6.13;;;4.60;;
18695;SDS011;22617;43.690;27.956;2023-09-12T00:27:58;5.00;;;3.43;;
18695;SDS011;22617;43.690;27.956;2023-09-12T00:33:01;4.93;;;4.00;;
18695;SDS011;22617;43.690;27.956;2023-09-12T00:38:05;4.30;;;3.47;;
18695;SDS011;22617;43.690;27.956;2023-09-12T00:43:10;5.10;;;4.10;;
18695;SDS011;22617;43.690;27.956;2023-09-12T00:48:14;4.83;;;3.50;;
18695;SDS011;22617;43.690;27.956;2023-09-12T00:53:19;7.57;;;4.97;;
18695;SDS011;22617;43.690;27.956;2023-09-12T00:58:25;4.67;;;3.80;;
18695;SDS011;22617;43.690;27.956;2023-09-12T01:03:31;6.70;;;4.60;;
18695;SDS011;22617;43.690;27.956;2023-09-12T01:08:36;4.97;;;4.00;;
18695;SDS011;22617;43.690;27.956;2023-09-12T01:13:42;4.80;;;3.47;;
18695;SDS011;22617;43.690;27.956;2023-09-12T01:18:46;5.83;;;4.87;;
18695;SDS011;22617;43.690;27.956;2023-09-12T01:23:52;5.67;;;4.03;;
18695;SDS011;22617;43.690;27.956;2023-09-12T01:29:10;6.37;;;4.23;;
18695;SDS011;22617;43.690;27.956;2023-09-12T01:34:16;5.33;;;3.97;;
18695;SDS011;22617;43.690;27.956;2023-09-12T01:39:20;4.87;;;3.70;;
18695;SDS011;22617;43.690;27.956;2023-09-12T01:44:26;5.77;;;3.87;;
18695;SDS011;22617;43.690;27.956;2023-09-12T01:49:31;6.43;;;4.20;;
18695;SDS011;22617;43.690;27.956;2023-09-12T01:54:36;7.10;;;4.23;;
18695;SDS011;22617;43.690;27.956;2023-09-12T01:59:42;4.97;;;3.63;;
18695;SDS011;22617;43.690;27.956;2023-09-12T02:04:50;6.90;;;4.17;;
18695;SDS011;22617;43.690;27.956;2023-09-12T02:09:57;6.87;;;3.57;;
18695;SDS011;22617;43.690;27.956;2023-09-12T02:15:07;5.57;;;4.00;;
18695;SDS011;22617;43.690;27.956;2023-09-12T02:20:11;4.93;;;3.63;;
18695;SDS011;22617;43.690;27.956;2023-09-12T02:25:15;6.43;;;4.67;;
18695;SDS011;22617;43.690;27.956;2023-09-12T02:30:23;5.23;;;3.97;;
18695;SDS011;22617;43.690;27.956;2023-09-12T02:35:27;5.67;;;3.90;;
18695;SDS011;22617;43.690;27.956;2023-09-12T02:40:31;5.80;;;3.93;;
18695;SDS011;22617;43.690;27.956;2023-09-12T02:45:36;6.40;;;4.17;;
18695;SDS011;22617;43.690;27.956;2023-09-12T02:50:40;5.87;;;4.30;;
18695;SDS011;22617;43.690;27.956;2023-09-12T02:55:43;7.70;;;4.43;;
18695;SDS011;22617;43.690;27.956;2023-09-12T03:00:48;6.28;;;4.65;;
18695;SDS011;22617;43.690;27.956;2023-09-12T03:05:57;6.30;;;4.63;;
18695;SDS011;22617;43.690;27.956;2023-09-12T03:11:01;9.57;;;4.83;;
18695;SDS011;22617;43.690;27.956;2023-09-12T03:16:09;6.40;;;3.97;;
18695;SDS011;22617;43.690;27.956;2023-09-12T03:21:13;5.90;;;4.40;;
18695;SDS011;22617;43.690;27.956;2023-09-12T03:26:17;6.20;;;4.07;;
18695;SDS011;22617;43.690;27.956;2023-09-12T03:31:22;5.70;;;4.43;;
18695;SDS011;22617;43.690;27.956;2023-09-12T03:36:26;7.80;;;5.03;;
18695;SDS011;22617;43.690;27.956;2023-09-12T03:41:29;7.03;;;4.93;;
18695;SDS011;22617;43.690;27.956;2023-09-12T03:46:34;6.60;;;4.40;;
18695;SDS011;22617;43.690;27.956;2023-09-12T03:51:38;8.00;;;4.17;;
18695;SDS011;22617;43.690;27.956;2023-09-12T03:56:42;8.10;;;5.30;;
18695;SDS011;22617;43.690;27.956;2023-09-12T04:01:49;6.63;;;4.53;;
18695;SDS011;22617;43.690;27.956;2023-09-12T04:06:53;8.93;;;4.57;;
18695;SDS011;22617;43.690;27.956;2023-09-12T04:11:56;5.03;;;4.07;;
18695;SDS011;22617;43.690;27.956;2023-09-12T04:17:01;11.87;;;5.07;;
18695;SDS011;22617;43.690;27.956;2023-09-12T04:22:10;9.67;;;4.90;;
18695;SDS011;22617;43.690;27.956;2023-09-12T04:27:13;17.20;;;4.80;;
18695;SDS011;22617;43.690;27.956;2023-09-12T04:32:18;23.30;;;5.83;;
18695;SDS011;22617;43.690;27.956;2023-09-12T04:37:26;66.17;;;9.40;;
18695;SDS011;22617;43.690;27.956;2023-09-12T04:42:30;20.53;;;5.97;;
18695;SDS011;22617;43.690;27.956;2023-09-12T04:47:36;13.03;;;6.00;;
18695;SDS011;22617;43.690;27.956;2023-09-12T04:52:40;19.47;;;6.20;;
18695;SDS011;22617;43.690;27.956;2023-09-12T04:57:44;9.17;;;4.90;;
18695;SDS011;22617;43.690;27.956;2023-09-12T05:02:50;13.20;;;5.60;;
18695;SDS011;22617;43.690;27.956;2023-09-12T05:07:53;21.20;;;6.23;;
18695;SDS011;22617;43.690;27.956;2023-09-12T05:12:57;12.73;;;5.53;;
18695;SDS011;22617;43.690;27.956;2023-09-12T05:18:03;13.50;;;5.75;;
18695;SDS011;22617;43.690;27.956;2023-09-12T05:23:07;9.63;;;5.20;;
18695;SDS011;22617;43.690;27.956;2023-09-12T05:28:11;7.10;;;5.00;;
18695;SDS011;22617;43.690;27.956;2023-09-12T05:33:23;8.52;;;4.60;;
18695;SDS011;22617;43.690;27.956;2023-09-12T05:38:27;11.70;;;4.10;;
18695;SDS011;22617;43.690;27.956;2023-09-12T05:43:31;6.90;;;4.22;;
18695;SDS011;22617;43.690;27.956;2023-09-12T05:48:36;7.40;;;4.05;;
18695;SDS011;22617;43.690;27.956;2023-09-12T05:53:40;9.07;;;4.15;;
18695;SDS011;22617;43.690;27.956;2023-09-12T05:58:44;5.30;;;3.42;;
18695;SDS011;22617;43.690;27.956;2023-09-12T06:03:50;7.05;;;3.58;;
18695;SDS011;22617;43.690;27.956;2023-09-12T06:08:54;8.05;;;3.53;;
18695;SDS011;22617;43.690;27.956;2023-09-12T06:13:58;5.05;;;3.30;;
18695;SDS011;22617;43.690;27.956;2023-09-12T06:19:03;6.90;;;3.40;;
18695;SDS011;22617;43.690;27.956;2023-09-12T06:24:10;6.43;;;3.47;;
18695;SDS011;22617;43.690;27.956;2023-09-12T06:29:15;3.35;;;2.95;;
18695;SDS011;22617;43.690;27.956;2023-09-12T06:34:20;4.63;;;2.97;;
18695;SDS011;22617;43.690;27.956;2023-09-12T06:39:24;5.78;;;3.10;;
18695;SDS011;22617;43.690;27.956;2023-09-12T06:44:27;4.72;;;2.90;;
18695;SDS011;22617;43.690;27.956;2023-09-12T06:49:32;7.55;;;3.05;;
18695;SDS011;22617;43.690;27.956;2023-09-12T06:54:38;4.07;;;3.05;;
18695;SDS011;22617;43.690;27.956;2023-09-12T06:59:42;5.85;;;2.97;;
18695;SDS011;22617;43.690;27.956;2023-09-12T07:04:47;5.00;;;2.75;;
18695;SDS011;22617;43.690;27.956;2023-09-12T07:09:50;8.48;;;3.10;;
18695;SDS011;22617;43.690;27.956;2023-09-12T07:15:02;7.82;;;3.28;;
18695;SDS011;22617;43.690;27.956;2023-09-12T07:20:09;25.77;;;5.60;;
18695;SDS011;22617;43.690;27.956;2023-09-12T07:25:13;3.15;;;2.58;;
18695;SDS011;22617;43.690;27.956;2023-09-12T07:30:18;4.53;;;2.72;;
18695;SDS011;22617;43.690;27.956;2023-09-12T07:35:23;4.45;;;2.65;;
18695;SDS011;22617;43.690;27.956;2023-09-12T07:40:27;3.67;;;2.63;;
18695;SDS011;22617;43.690;27.956;2023-09-12T07:45:30;3.75;;;2.60;;
18695;SDS011;22617;43.690;27.956;2023-09-12T07:50:41;4.78;;;2.42;;
18695;SDS011;22617;43.690;27.956;2023-09-12T07:55:44;4.43;;;2.40;;
18695;SDS011;22617;43.690;27.956;2023-09-12T08:00:48;3.72;;;2.40;;
18695;SDS011;22617;43.690;27.956;2023-09-12T08:05:56;4.68;;;2.58;;
18695;SDS011;22617;43.690;27.956;2023-09-12T08:11:00;4.22;;;2.40;;
18695;SDS011;22617;43.690;27.956;2023-09-12T08:16:04;4.53;;;2.30;;
18695;SDS011;22617;43.690;27.956;2023-09-12T08:21:09;5.90;;;2.85;;
18695;SDS011;22617;43.690;27.956;2023-09-12T08:26:13;4.60;;;2.20;;
18695;SDS011;22617;43.690;27.956;2023-09-12T08:31:17;4.18;;;2.33;;
18695;SDS011;22617;43.690;27.956;2023-09-12T08:36:23;6.90;;;2.33;;
18695;SDS011;22617;43.690;27.956;2023-09-12T08:41:27;3.15;;;2.22;;
18695;SDS011;22617;43.690;27.956;2023-09-12T08:46:30;4.45;;;2.40;;
18695;SDS011;22617;43.690;27.956;2023-09-12T08:51:36;2.50;;;2.10;;
18695;SDS011;22617;43.690;27.956;2023-09-12T08:56:41;3.25;;;2.22;;
18695;SDS011;22617;43.690;27.956;2023-09-12T09:01:46;4.40;;;2.20;;
18695;SDS011;22617;43.690;27.956;2023-09-12T09:06:54;2.78;;;2.00;;
18695;SDS011;22617;43.690;27.956;2023-09-12T09:12:00;6.30;;;2.50;;
18695;SDS011;22617;43.690;27.956;2023-09-12T09:17:03;9.55;;;2.13;;
18695;SDS011;22617;43.690;27.956;2023-09-12T09:22:14;4.57;;;2.22;;
18695;SDS011;22617;43.690;27.956;2023-09-12T09:27:32;2.88;;;2.00;;
18695;SDS011;22617;43.690;27.956;2023-09-12T09:32:37;6.82;;;1.95;;
18695;SDS011;22617;43.690;27.956;2023-09-12T09:37:42;5.07;;;2.00;;
18695;SDS011;22617;43.690;27.956;2023-09-12T09:42:46;3.55;;;2.13;;
18695;SDS011;22617;43.690;27.956;2023-09-12T09:47:51;8.35;;;2.28;;
18695;SDS011;22617;43.690;27.956;2023-09-12T09:52:56;5.03;;;2.30;;
18695;SDS011;22617;43.690;27.956;2023-09-12T09:58:00;4.50;;;2.70;;
18695;SDS011;22617;43.690;27.956;2023-09-12T10:03:04;4.68;;;2.30;;
18695;SDS011;22617;43.690;27.956;2023-09-12T10:08:10;3.83;;;1.95;;
18695;SDS011;22617;43.690;27.956;2023-09-12T10:13:19;4.43;;;2.10;;
18695;SDS011;22617;43.690;27.956;2023-09-12T10:18:28;20.13;;;4.45;;
18695;SDS011;22617;43.690;27.956;2023-09-12T10:23:39;5.15;;;2.53;;
18695;SDS011;22617;43.690;27.956;2023-09-12T10:28:47;4.47;;;2.03;;
18695;SDS011;22617;43.690;27.956;2023-09-12T10:33:53;3.70;;;2.05;;
18695;SDS011;22617;43.690;27.956;2023-09-12T10:38:58;5.80;;;2.58;;
18695;SDS011;22617;43.690;27.956;2023-09-12T10:44:04;3.90;;;2.28;;
18695;SDS011;22617;43.690;27.956;2023-09-12T10:49:12;3.30;;;2.50;;
18695;SDS011;22617;43.690;27.956;2023-09-12T10:54:24;17.73;;;2.92;;
18695;SDS011;22617;43.690;27.956;2023-09-12T10:59:28;3.15;;;2.40;;
18695;SDS011;22617;43.690;27.956;2023-09-12T11:04:33;5.05;;;2.10;;
18695;SDS011;22617;43.690;27.956;2023-09-12T11:09:41;7.35;;;2.13;;
18695;SDS011;22617;43.690;27.956;2023-09-12T11:15:04;7.05;;;2.20;;
18695;SDS011;22617;43.690;27.956;2023-09-12T11:20:10;3.15;;;2.10;;
18695;SDS011;22617;43.690;27.956;2023-09-12T11:25:17;7.88;;;2.25;;
18695;SDS011;22617;43.690;27.956;2023-09-12T11:30:24;3.42;;;2.10;;
18695;SDS011;22617;43.690;27.956;2023-09-12T11:35:28;11.40;;;2.22;;
18695;SDS011;22617;43.690;27.956;2023-09-12T11:40:43;6.63;;;2.55;;
18695;SDS011;22617;43.690;27.956;2023-09-12T11:45:48;6.80;;;2.78;;
18695;SDS011;22617;43.690;27.956;2023-09-12T11:50:54;5.05;;;1.98;;
18695;SDS011;22617;43.690;27.956;2023-09-12T11:55:59;3.45;;;2.03;;
18695;SDS011;22617;43.690;27.956;2023-09-12T12:01:04;4.47;;;2.20;;
18695;SDS011;22617;43.690;27.956;2023-09-12T12:06:07;11.38;;;3.75;;
18695;SDS011;22617;43.690;27.956;2023-09-12T12:11:13;2.92;;;2.03;;
18695;SDS011;22617;43.690;27.956;2023-09-12T12:16:19;3.53;;;2.20;;
18695;SDS011;22617;43.690;27.956;2023-09-12T12:21:25;5.63;;;2.40;;
18695;SDS011;22617;43.690;27.956;2023-09-12T12:26:31;6.15;;;3.00;;
18695;SDS011;22617;43.690;27.956;2023-09-12T12:31:34;7.40;;;3.30;;
18695;SDS011;22617;43.690;27.956;2023-09-12T12:36:40;55.63;;;5.05;;
18695;SDS011;22617;43.690;27.956;2023-09-12T12:41:58;6.07;;;2.88;;
18695;SDS011;22617;43.690;27.956;2023-09-12T12:47:03;12.18;;;3.35;;
18695;SDS011;22617;43.690;27.956;2023-09-12T12:52:09;4.43;;;2.70;;
18695;SDS011;22617;43.690;27.956;2023-09-12T12:57:18;2.47;;;1.83;;
18695;SDS011;22617;43.690;27.956;2023-09-12T13:02:22;3.92;;;1.98;;
18695;SDS011;22617;43.690;27.956;2023-09-12T13:07:26;4.50;;;3.03;;
18695;SDS011;22617;43.690;27.956;2023-09-12T13:12:31;4.53;;;2.30;;
18695;SDS011;22617;43.690;27.956;2023-09-12T13:17:34;2.92;;;1.67;;
18695;SDS011;22617;43.690;27.956;2023-09-12T13:22:38;5.18;;;2.20;;
18695;SDS011;22617;43.690;27.956;2023-09-12T13:27:43;13.55;;;5.88;;
18695;SDS011;22617;43.690;27.956;2023-09-12T13:32:47;11.32;;;5.15;;
18695;SDS011;22617;43.690;27.956;2023-09-12T13:37:51;7.53;;;2.13;;
18695;SDS011;22617;43.690;27.956;2023-09-12T13:42:56;5.75;;;2.30;;
18695;SDS011;22617;43.690;27.956;2023-09-12T13:47:59;8.23;;;3.05;;
18695;SDS011;22617;43.690;27.956;2023-09-12T13:53:04;7.25;;;3.05;;
18695;SDS011;22617;43.690;27.956;2023-09-12T13:58:10;5.40;;;2.83;;
18695;SDS011;22617;43.690;27.956;2023-09-12T14:03:14;6.47;;;3.08;;
18695;SDS011;22617;43.690;27.956;2023-09-12T14:08:18;5.60;;;2.20;;
18695;SDS011;22617;43.690;27.956;2023-09-12T14:13:23;2.95;;;2.10;;
18695;SDS011;22617;43.690;27.956;2023-09-12T14:18:27;5.70;;;2.10;;
18695;SDS011;22617;43.690;27.956;2023-09-12T14:23:31;8.23;;;2.67;;
18695;SDS011;22617;43.690;27.956;2023-09-12T14:28:36;3.28;;;1.90;;
18695;SDS011;22617;43.690;27.956;2023-09-12T14:33:41;2.45;;;1.77;;
18695;SDS011;22617;43.690;27.956;2023-09-12T14:38:46;3.83;;;1.70;;
18695;SDS011;22617;43.690;27.956;2023-09-12T14:43:50;4.03;;;2.20;;
18695;SDS011;22617;43.690;27.956;2023-09-12T14:48:54;2.75;;;1.70;;
18695;SDS011;22617;43.690;27.956;2023-09-12T14:54:03;15.70;;;2.60;;
18695;SDS011;22617;43.690;27.956;2023-09-12T14:59:09;2.97;;;1.70;;
18695;SDS011;22617;43.690;27.956;2023-09-12T15:04:13;3.88;;;1.75;;
18695;SDS011;22617;43.690;27.956;2023-09-12T15:09:16;3.90;;;1.80;;
18695;SDS011;22617;43.690;27.956;2023-09-12T15:14:21;4.45;;;1.90;;
18695;SDS011;22617;43.690;27.956;2023-09-12T15:19:25;2.67;;;1.80;;
18695;SDS011;22617;43.690;27.956;2023-09-12T15:24:29;2.60;;;2.00;;
18695;SDS011;22617;43.690;27.956;2023-09-12T15:29:33;2.92;;;2.17;;
18695;SDS011;22617;43.690;27.956;2023-09-12T15:34:37;3.42;;;1.70;;
18695;SDS011;22617;43.690;27.956;2023-09-12T15:39:40;6.60;;;2.20;;
18695;SDS011;22617;43.690;27.956;2023-09-12T15:44:47;4.50;;;1.92;;
18695;SDS011;22617;43.690;27.956;2023-09-12T15:50:01;3.67;;;2.00;;
18695;SDS011;22617;43.690;27.956;2023-09-12T15:55:06;2.30;;;2.10;;
18695;SDS011;22617;43.690;27.956;2023-09-12T16:00:12;3.17;;;2.15;;
18695;SDS011;22617;43.690;27.956;2023-09-12T16:05:16;3.40;;;2.38;;
18695;SDS011;22617;43.690;27.956;2023-09-12T16:10:20;4.53;;;2.45;;
18695;SDS011;22617;43.690;27.956;2023-09-12T16:15:25;2.22;;;2.03;;
18695;SDS011;22617;43.690;27.956;2023-09-12T16:20:29;4.13;;;2.40;;
18695;SDS011;22617;43.690;27.956;2023-09-12T16:25:32;4.25;;;2.30;;
18695;SDS011;22617;43.690;27.956;2023-09-12T16:30:38;3.80;;;2.40;;
18695;SDS011;22617;43.690;27.956;2023-09-12T16:35:41;7.00;;;2.22;;
18695;SDS011;22617;43.690;27.956;2023-09-12T16:40:45;4.93;;;2.60;;
18695;SDS011;22617;43.690;27.956;2023-09-12T16:45:51;4.20;;;2.30;;
18695;SDS011;22617;43.690;27.956;2023-09-12T16:50:54;3.90;;;2.33;;
18695;SDS011;22617;43.690;27.956;2023-09-12T16:55:58;3.88;;;2.28;;
18695;SDS011;22617;43.690;27.956;2023-09-12T17:01:03;5.50;;;2.55;;
18695;SDS011;22617;43.690;27.956;2023-09-12T17:06:07;2.97;;;2.67;;
18695;SDS011;22617;43.690;27.956;2023-09-12T17:11:12;6.68;;;2.55;;
18695;SDS011;22617;43.690;27.956;2023-09-12T17:16:17;4.15;;;2.63;;
18695;SDS011;22617;43.690;27.956;2023-09-12T17:21:21;4.05;;;2.63;;
18695;SDS011;22617;43.690;27.956;2023-09-12T17:26:24;4.95;;;2.88;;
18695;SDS011;22617;43.690;27.956;2023-09-12T17:31:29;3.70;;;2.80;;
18695;SDS011;22617;43.690;27.956;2023-09-12T17:36:33;4.00;;;3.00;;
18695;SDS011;22617;43.690;27.956;2023-09-12T17:41:37;5.28;;;2.90;;
18695;SDS011;22617;43.690;27.956;2023-09-12T17:46:43;3.40;;;2.72;;
18695;SDS011;22617;43.690;27.956;2023-09-12T17:51:47;3.70;;;2.53;;
18695;SDS011;22617;43.690;27.956;2023-09-12T17:56:51;3.97;;;2.67;;
18695;SDS011;22617;43.690;27.956;2023-09-12T18:01:58;3.97;;;2.63;;
18695;SDS011;22617;43.690;27.956;2023-09-12T18:07:01;3.90;;;2.70;;
18695;SDS011;22617;43.690;27.956;2023-09-12T18:12:07;3.97;;;2.80;;
18695;SDS011;22617;43.690;27.956;2023-09-12T18:17:12;4.85;;;2.72;;
18695;SDS011;22617;43.690;27.956;2023-09-12T18:22:16;5.50;;;3.00;;
18695;SDS011;22617;43.690;27.956;2023-09-12T18:27:20;4.07;;;2.70;;
18695;SDS011;22617;43.690;27.956;2023-09-12T18:32:25;4.53;;;2.70;;
18695;SDS011;22617;43.690;27.956;2023-09-12T18:37:29;3.35;;;2.60;;
18695;SDS011;22617;43.690;27.956;2023-09-12T18:42:32;4.65;;;2.60;;
18695;SDS011;22617;43.690;27.956;2023-09-12T18:47:37;5.35;;;3.08;;
18695;SDS011;22617;43.690;27.956;2023-09-12T18:52:41;3.28;;;2.67;;
18695;SDS011;22617;43.690;27.956;2023-09-12T18:57:56;6.35;;;2.50;;
18695;SDS011;22617;43.690;27.956;2023-09-12T19:03:01;3.92;;;2.65;;
18695;SDS011;22617;43.690;27.956;2023-09-12T19:08:06;5.35;;;2.75;;
18695;SDS011;22617;43.690;27.956;2023-09-12T19:13:11;4.55;;;2.78;;
18695;SDS011;22617;43.690;27.956;2023-09-12T19:18:16;3.25;;;2.55;;
18695;SDS011;22617;43.690;27.956;2023-09-12T19:23:20;3.30;;;2.55;;
18695;SDS011;22617;43.690;27.956;2023-09-12T19:28:24;4.45;;;3.22;;
18695;SDS011;22617;43.690;27.956;2023-09-12T19:33:29;3.70;;;2.72;;
18695;SDS011;22617;43.690;27.956;2023-09-12T19:38:33;3.05;;;2.53;;
18695;SDS011;22617;43.690;27.956;2023-09-12T19:43:36;4.05;;;2.72;;
18695;SDS011;22617;43.690;27.956;2023-09-12T19:48:42;3.85;;;2.78;;
18695;SDS011;22617;43.690;27.956;2023-09-12T19:53:45;5.05;;;2.75;;
18695;SDS011;22617;43.690;27.956;2023-09-12T19:58:49;8.48;;;2.88;;
18695;SDS011;22617;43.690;27.956;2023-09-12T20:03:54;4.35;;;2.88;;
18695;SDS011;22617;43.690;27.956;2023-09-12T20:08:58;3.95;;;2.55;;
18695;SDS011;22617;43.690;27.956;2023-09-12T20:14:01;4.22;;;2.70;;
18695;SDS011;22617;43.690;27.956;2023-09-12T20:19:07;3.45;;;2.45;;
18695;SDS011;22617;43.690;27.956;2023-09-12T20:24:11;4.40;;;3.03;;
18695;SDS011;22617;43.690;27.956;2023-09-12T20:29:14;2.90;;;2.55;;
18695;SDS011;22617;43.690;27.956;2023-09-12T20:34:19;5.22;;;2.80;;
18695;SDS011;22617;43.690;27.956;2023-09-12T20:39:24;3.20;;;2.70;;
18695;SDS011;22617;43.690;27.956;2023-09-12T20:44:29;3.85;;;2.53;;
18695;SDS011;22617;43.690;27.956;2023-09-12T20:49:34;4.47;;;2.90;;
18695;SDS011;22617;43.690;27.956;2023-09-12T20:54:39;5.38;;;3.20;;
18695;SDS011;22617;43.690;27.956;2023-09-12T20:59:42;3.83;;;2.90;;
18695;SDS011;22617;43.690;27.956;2023-09-12T21:04:47;3.42;;;2.70;;
18695;SDS011;22617;43.690;27.956;2023-09-12T21:09:51;3.25;;;2.70;;
18695;SDS011;22617;43.690;27.956;2023-09-12T21:14:54;4.03;;;2.92;;
18695;SDS011;22617;43.690;27.956;2023-09-12T21:19:59;5.35;;;2.67;;
18695;SDS011;22617;43.690;27.956;2023-09-12T21:25:04;3.95;;;2.45;;
18695;SDS011;22617;43.690;27.956;2023-09-12T21:30:09;4.00;;;2.40;;
18695;SDS011;22617;43.690;27.956;2023-09-12T21:35:16;7.22;;;2.88;;
18695;SDS011;22617;43.690;27.956;2023-09-12T21:40:21;6.35;;;3.15;;
18695;SDS011;22617;43.690;27.956;2023-09-12T21:45:24;3.58;;;2.28;;
18695;SDS011;22617;43.690;27.956;2023-09-12T21:50:29;7.50;;;2.85;;
18695;SDS011;22617;43.690;27.956;2023-09-12T21:55:36;4.03;;;2.90;;
18695;SDS011;22617;43.690;27.956;2023-09-12T22:00:39;13.77;;;3.90;;
18695;SDS011;22617;43.690;27.956;2023-09-12T22:05:45;19.48;;;4.28;;
18695;SDS011;22617;43.690;27.956;2023-09-12T22:10:49;6.65;;;3.53;;
18695;SDS011;22617;43.690;27.956;2023-09-12T22:15:53;4.35;;;3.17;;
18695;SDS011;22617;43.690;27.956;2023-09-12T22:20:58;3.80;;;2.80;;
18695;SDS011;22617;43.690;27.956;2023-09-12T22:26:07;8.50;;;3.93;;
18695;SDS011;22617;43.690;27.956;2023-09-12T22:31:11;5.40;;;3.42;;
18695;SDS011;22617;43.690;27.956;2023-09-12T22:36:18;7.25;;;3.88;;
18695;SDS011;22617;43.690;27.956;2023-09-12T22:41:21;4.40;;;3.30;;
18695;SDS011;22617;43.690;27.956;2023-09-12T22:46:26;4.10;;;3.22;;
18695;SDS011;22617;43.690;27.956;2023-09-12T22:51:31;5.50;;;3.30;;
18695;SDS011;22617;43.690;27.956;2023-09-12T22:56:35;8.87;;;4.30;;
18695;SDS011;22617;43.690;27.956;2023-09-12T23:01:39;7.45;;;3.92;;
18695;SDS011;22617;43.690;27.956;2023-09-12T23:06:44;5.73;;;3.80;;
18695;SDS011;22617;43.690;27.956;2023-09-12T23:11:48;5.65;;;3.83;;
18695;SDS011;22617;43.690;27.956;2023-09-12T23:16:51;3.63;;;3.05;;
18695;SDS011;22617;43.690;27.956;2023-09-12T23:21:57;5.05;;;3.85;;
18695;SDS011;22617;43.690;27.956;2023-09-12T23:27:00;6.20;;;3.47;;
18695;SDS011;22617;43.690;27.956;2023-09-12T23:32:08;4.95;;;3.78;;
18695;SDS011;22617;43.690;27.956;2023-09-12T23:37:13;6.20;;;4.33;;
18695;SDS011;22617;43.690;27.956;2023-09-12T23:42:17;5.23;;;3.87;;
18695;SDS011;22617;43.690;27.956;2023-09-12T23:47:21;4.80;;;3.77;;
18695;SDS011;22617;43.690;27.956;2023-09-12T23:52:27;5.28;;;3.83;;
18695;SDS011;22617;43.690;27.956;2023-09-12T23:57:30;6.75;;;4.43;;
